WMKK/KUL METAR and TAF weather

Enter ICAO airport designator
Station Type Date Time Source
WMKK METAR 2019/08/23 17:30 UTC NOAA

WMKK 231730Z 13005KT 080V170 9000 FEW030 SCT140 BKN280 28/23 Q1011 NOSIG


Station Type Date Time Source
WMKK Decoded METAR 2019/08/23 17:30 UTC NOAA

Station name not available
Aug 23, 2019 - 01:30 PM EDT / 2019.08.23 1730 UTC
Wind: from the SE (130 degrees) at 6 MPH (5 KT) (direction variable):0
Visibility: 5 mile(s):0
Sky conditions: mostly cloudy
Temperature: 82 F (28 C)
Dew Point: 73 F (23 C)
Relative Humidity: 74%
Pressure (altimeter): 29.85 in. Hg (1011 hPa)
ob: WMKK 231730Z 13005KT 080V170 9000 FEW030 SCT140 BKN280 28/23 Q1011 NOSIG
cycle: 17

Station Type Date Time Source
WMKK TAF 2019/08/23 18:09 UTC NOAA

TAF WMKK 231700Z 2318/2500 15005KT 9000 FEW030
BECMG 2400/2402 17008KT FEW018
BECMG 2410/2412 14005KT FEW030

Example: see airport list